Weather History for Valley City, ND

Change the Weather History Date:

Monday, February 18, 2013

  Actual Average (KJMS) Record (KJMS)
Temperature  
Mean Temperature 14 °F 16 °F  
Max Temperature 32 °F 26 °F 54 °F (1954)
Min Temperature -4 °F 7 °F -31 °F (1910)
Degree Days  
Heating Degree Days 51 49  
Month to date heating degree days 929  
Since 1 July heating degree days 6291  
Cooling Degree Days 0 0  
Month to date cooling degree days 0  
Year to date cooling degree days 0  
Moisture  
Dew Point 6 °F    
Average Humidity 86    
Maximum Humidity 100    
Minimum Humidity 71    
Precipitation  
Precipitation 2.39 in 0.01 in 0.31 in (1998)
Month to date precipitation 0.21  
Year to date precipitation 0.66  
Sea Level Pressure  
Sea Level Pressure 29.83 in    
Wind  
Wind Speed 23 mph (NNW)    
Max Wind Speed 37 mph    
Max Gust Speed 46 mph    
Visibility 4 miles    
Events Rain , Snow    
T = Trace of Precipitation, MM = Missing Value Source: NWS Daily Summary

Daily Weather History Graph

Daily Weather History Graph

Search for Another Location

Airport:

Trip Planner

Search our weather history database for the weather conditions in past years. The results will help you decide how hot, cold, wet, or windy it might be!

Date:

Astronomy

Feb. 18, 2013 Rise Set
Actual Time 7:30 AM CST 6:01 PM CST
Civil Twilight 6:59 AM CST 6:32 PM CST
Nautical Twilight 6:24 AM CST 7:08 PM CST
Astronomical Twilight 5:49 AM CST 7:43 PM CST
Moon 11:37 AM CST (2/18) 2:22 AM CST (2/18)
Length of Visible Light 11h 32m
Length of Day
10h 30m
First Quarter, 58% of the Moon is Illuminated
Feb 18
First Quarter
Feb 25
Full
Mar 4
Last Quarter
Mar 11
New
Mar 19
First Quarter

Hourly Weather History & Observations

Time (CST) Temp. Windchill Dew Point Humidity Pressure Visibility Wind Dir Wind Speed Gust Speed Precip Events Conditions
12:15 AM 32.0 °F 24.2 °F 32.0 °F 100% 29.46 in 2.5 mi West 9.2 mph - 0.07 in Snow Light Snow
12:35 AM 32.0 °F 24.2 °F 32.0 °F 100% 29.46 in 2.5 mi West 9.2 mph - 0.19 in Snow Light Snow
12:55 AM 32.0 °F 23.0 °F 32.0 °F 100% 29.46 in 3.0 mi West 11.5 mph - 0.23 in Snow Light Snow
1:15 AM 32.0 °F 24.2 °F 32.0 °F 100% 29.47 in 6.0 mi West 9.2 mph - N/A Rain Light Rain
1:35 AM 32.0 °F 23.6 °F 32.0 °F 100% 29.47 in 8.0 mi WNW 10.4 mph - N/A   Overcast
1:55 AM 30.2 °F 17.8 °F 30.2 °F 100% 29.49 in 2.5 mi NNW 19.6 mph 24.2 mph 0.03 in Snow Light Snow
2:15 AM 24.8 °F 9.6 °F 24.8 °F 100% 29.51 in 1.0 mi North 23.0 mph 29.9 mph 0.18 in Snow Light Snow
2:35 AM 24.8 °F 9.3 °F 24.8 °F 100% 29.53 in 2.0 mi NNW 24.2 mph 29.9 mph 0.23 in Snow Light Snow
2:55 AM 23.0 °F 7.2 °F 23.0 °F 100% 29.54 in 1.5 mi NNW 23.0 mph 34.5 mph 0.34 in Snow Light Snow
3:15 AM 23.0 °F 7.2 °F 23.0 °F 100% 29.56 in 2.0 mi NNW 23.0 mph 34.5 mph 0.02 in Snow Light Snow
3:35 AM 21.2 °F 4.9 °F 21.2 °F 100% 29.58 in 3.0 mi NNW 23.0 mph 35.7 mph 0.03 in Snow Light Snow
3:55 AM 19.4 °F 1.4 °F 19.4 °F 100% 29.59 in 5.0 mi NNW 26.5 mph 33.4 mph 0.05 in Snow Light Snow
4:15 AM 19.4 °F 0.8 °F 17.6 °F 93% 29.59 in 2.5 mi NNW 28.8 mph 36.8 mph 0.02 in Snow Light Snow
4:35 AM 19.4 °F 0.5 °F 17.6 °F 93% 29.60 in 3.0 mi NNW 29.9 mph 35.7 mph 0.04 in Snow Light Snow
4:55 AM 17.6 °F -1.9 °F 17.6 °F 100% 29.61 in 2.0 mi NNW 29.9 mph 39.1 mph 0.08 in Snow Light Snow
5:15 AM 17.6 °F -2.8 °F 17.6 °F 100% 29.63 in 1.5 mi NNW 33.4 mph 39.1 mph 0.09 in Snow Light Snow
5:35 AM 15.8 °F -6.1 °F 15.8 °F 100% 29.65 in 1.0 mi NNW 36.8 mph 44.9 mph 0.21 in Snow Light Snow
5:55 AM 15.8 °F -4.7 °F 14.0 °F 93% 29.66 in 1.0 mi NNW 31.1 mph 36.8 mph 0.28 in Snow Light Snow
6:15 AM 14.0 °F -7.1 °F 12.2 °F 93% 29.67 in 1.0 mi NNW 31.1 mph 41.4 mph 0.05 in Snow Light Snow
6:35 AM 12.2 °F -9.6 °F 10.4 °F 92% 29.68 in 1.2 mi NNW 31.1 mph 41.4 mph 0.09 in Snow Light Snow
6:55 AM 10.4 °F -12.3 °F 8.6 °F 92% 29.69 in 1.2 mi NNW 32.2 mph 39.1 mph 0.13 in Snow Light Snow
7:15 AM 10.4 °F -12.0 °F 8.6 °F 92% 29.70 in 1.0 mi NNW 31.1 mph 39.1 mph 0.02 in Snow Light Snow
7:35 AM 8.6 °F -13.8 °F 6.8 °F 92% 29.72 in 0.5 mi NNW 28.8 mph 40.3 mph 0.07 in Snow Snow
7:55 AM 8.6 °F -13.1 °F 5.0 °F 85% 29.73 in 0.8 mi NNW 26.5 mph 35.7 mph 0.09 in Snow Light Snow
8:15 AM 8.6 °F -14.5 °F 5.0 °F 85% 29.75 in 1.0 mi NNW 31.1 mph 38.0 mph 0.01 in Snow Light Snow
8:35 AM 6.8 °F -17.3 °F 5.0 °F 92% 29.76 in 1.2 mi NNW 32.2 mph 40.3 mph 0.04 in Snow Light Snow
8:55 AM 6.8 °F -15.5 °F 3.2 °F 85% 29.77 in 1.2 mi NNW 26.5 mph 40.3 mph 0.06 in Snow Light Snow
9:15 AM 6.8 °F -16.6 °F 1.4 °F 79% 29.78 in 2.0 mi NNW 29.9 mph 38.0 mph N/A Snow Light Snow
9:35 AM 6.8 °F -16.2 °F 1.4 °F 79% 29.80 in 1.5 mi North 28.8 mph 35.7 mph 0.02 in Snow Light Snow
9:55 AM 6.8 °F -14.7 °F 1.4 °F 79% 29.81 in 2.0 mi North 24.2 mph 35.7 mph 0.03 in Snow Light Snow
10:15 AM 6.8 °F -15.9 °F 1.4 °F 79% 29.82 in 3.0 mi NNW 27.6 mph 33.4 mph 0.01 in Snow Light Snow
10:35 AM 6.8 °F -15.1 °F 3.2 °F 85% 29.83 in 2.5 mi NNW 25.3 mph 34.5 mph 0.04 in Snow Light Snow
10:55 AM 8.6 °F -13.4 °F 5.0 °F 85% 29.84 in 2.5 mi NNW 27.6 mph 32.2 mph 0.09 in Snow Light Snow
11:15 AM 8.6 °F -13.4 °F 5.0 °F 85% 29.85 in 1.0 mi NNW 27.6 mph 35.7 mph 0.04 in Snow Light Snow
11:35 AM 6.8 °F -15.9 °F 3.2 °F 85% 29.86 in 1.2 mi NNW 27.6 mph 46.0 mph 0.11 in Snow Light Snow
11:55 AM 6.8 °F -16.9 °F 1.4 °F 79% 29.86 in 2.5 mi NNW 31.1 mph 40.3 mph 0.17 in Snow Light Snow
12:15 PM 6.8 °F -18.2 °F 1.4 °F 79% 29.87 in 3.0 mi NNW 35.7 mph 42.6 mph 0.03 in Snow Light Snow
12:35 PM 6.8 °F -17.6 °F -0.4 °F 72% 29.88 in 9.0 mi NNW 33.4 mph 42.6 mph 0.08 in Snow Light Snow
12:55 PM 6.8 °F -16.9 °F -0.4 °F 72% 29.88 in 7.0 mi NNW 31.1 mph 40.3 mph 0.12 in Snow Light Snow
1:15 PM 5.0 °F -18.7 °F -0.4 °F 78% 29.89 in 4.0 mi NNW 28.8 mph 38.0 mph 0.02 in Snow Light Snow
1:35 PM 5.0 °F -19.7 °F -0.4 °F 78% 29.90 in 3.0 mi NNW 32.2 mph 38.0 mph 0.05 in Snow Light Snow
1:55 PM 5.0 °F -18.7 °F -0.4 °F 78% 29.90 in 4.0 mi NNW 28.8 mph 38.0 mph 0.08 in Snow Light Snow
2:15 PM 5.0 °F -20.1 °F -0.4 °F 78% 29.91 in 5.0 mi NNW 33.4 mph 40.3 mph 0.02 in Snow Light Snow
2:35 PM 5.0 °F -19.0 °F -0.4 °F 78% 29.91 in 5.0 mi NNW 29.9 mph 38.0 mph 0.06 in Snow Light Snow
2:55 PM 5.0 °F -18.3 °F -0.4 °F 78% 29.91 in 3.0 mi NNW 27.6 mph 38.0 mph 0.10 in Snow Light Snow
3:15 PM 5.0 °F -19.4 °F -0.4 °F 78% 29.92 in 7.0 mi NNW 31.1 mph 36.8 mph 0.02 in Snow Light Snow
3:35 PM 5.0 °F -18.3 °F -0.4 °F 78% 29.92 in 3.0 mi NNW 27.6 mph 38.0 mph 0.06 in Snow Light Snow
3:55 PM 5.0 °F -18.7 °F -0.4 °F 78% 29.93 in 3.0 mi NNW 28.8 mph 36.8 mph 0.09 in Snow Light Snow
4:15 PM 3.2 °F -20.7 °F -2.2 °F 78% 29.94 in 8.0 mi NNW 27.6 mph 35.7 mph 0.02 in Snow Light Snow
4:35 PM 3.2 °F -21.5 °F -0.4 °F 85% 29.95 in 3.0 mi NNW 29.9 mph 38.0 mph 0.06 in Snow Light Snow
4:55 PM 3.2 °F -21.5 °F -2.2 °F 78% 29.97 in 10.0 mi NNW 29.9 mph 38.0 mph 0.09 in Snow Light Snow
5:15 PM 3.2 °F -21.1 °F -0.4 °F 85% 29.98 in 7.0 mi NNW 28.8 mph 35.7 mph 0.01 in Snow Light Snow
5:35 PM 1.4 °F -24.6 °F -0.4 °F 92% 29.98 in 5.0 mi NNW 32.2 mph 38.0 mph 0.03 in Snow Light Snow
5:55 PM 3.2 °F -18.6 °F -0.4 °F 85% 29.99 in 5.0 mi NNW 21.9 mph 36.8 mph 0.06 in Snow Light Snow
6:15 PM 3.2 °F -21.1 °F -0.4 °F 85% 30.00 in 4.0 mi NNW 28.8 mph 34.5 mph 0.01 in Snow Light Snow
6:35 PM 3.2 °F -20.3 °F -0.4 °F 85% 30.01 in 7.0 mi NNW 26.5 mph 34.5 mph 0.03 in Snow Light Snow
6:55 PM 3.2 °F -20.3 °F -0.4 °F 85% 30.02 in 5.0 mi NNW 26.5 mph 35.7 mph 0.05 in Snow Light Snow
7:15 PM 3.2 °F -19.5 °F -0.4 °F 85% 30.03 in 1.5 mi North 24.2 mph 28.8 mph 0.01 in Snow Light Snow
7:35 PM 1.4 °F -23.2 °F -0.4 °F 92% 30.04 in 2.5 mi NNW 27.6 mph 36.8 mph 0.02 in Snow Light Snow
7:55 PM 1.4 °F -23.2 °F -2.2 °F 85% 30.04 in 5.0 mi North 27.6 mph 34.5 mph 0.04 in Snow Light Snow
8:15 PM 1.4 °F -21.9 °F -4.0 °F 78% 30.05 in 4.0 mi North 24.2 mph 38.0 mph 0.01 in Snow Light Snow
8:35 PM 1.4 °F -21.9 °F -2.2 °F 85% 30.06 in 3.0 mi North 24.2 mph 32.2 mph 0.03 in Snow Light Snow
8:55 PM -0.4 °F -22.8 °F -4.0 °F 85% 30.06 in 5.0 mi North 20.7 mph 35.7 mph 0.05 in Snow Light Snow
9:15 PM -0.4 °F -25.6 °F -4.0 °F 85% 30.07 in 5.0 mi NNW 27.6 mph 34.5 mph 0.01 in Snow Light Snow
9:35 PM -0.4 °F -24.3 °F -5.8 °F 78% 30.08 in 7.0 mi NNW 24.2 mph 34.5 mph 0.03 in Snow Light Snow
9:55 PM -0.4 °F -24.3 °F -5.8 °F 78% 30.08 in 6.0 mi NNW 24.2 mph 31.1 mph 0.05 in Snow Light Snow
10:15 PM -0.4 °F -24.3 °F -7.6 °F 72% 30.09 in 8.0 mi NNW 24.2 mph 32.2 mph 0.01 in Snow Light Snow
10:35 PM -0.4 °F -25.6 °F -7.6 °F 72% 30.10 in 5.0 mi NNW 27.6 mph 33.4 mph 0.03 in Snow Light Snow
10:55 PM -2.2 °F -28.4 °F -7.6 °F 78% 30.11 in 9.0 mi NNW 28.8 mph 33.4 mph 0.05 in Snow Light Snow
11:15 PM -2.2 °F -26.7 °F -9.4 °F 71% 30.12 in 6.0 mi NNW 24.2 mph 32.2 mph 0.01 in Snow Light Snow
11:35 PM -4.0 °F -29.1 °F -9.4 °F 78% 30.13 in 8.0 mi NNW 24.2 mph 31.1 mph 0.02 in Snow Light Snow
11:55 PM -4.0 °F -28.6 °F -9.4 °F 78% 30.14 in 7.0 mi NNW 23.0 mph 28.8 mph 0.03 in Snow Light Snow